Danvers, MA (01923)

12:58 PM EDT on May 28, 2015 (GMT -0400)
Danvers | | Change Station
CLOSE
Current Station
Personal Weather Station
Location: Danvers, MA
Elevation: 46 ft
Nearby Weather Stations
Active Advisory: Severe Thunderstorm Watch

Elev 46 ft 42.55 °N, 70.95 °W | Updated 15 seconds ago

Clear
Clear
86.0 °F
Feels Like 89 °F
N
1.6
Wind Variable Wind from West
Gusts 3.1 mph

Today
High -- | Low -- °F
--% Chance of Precip.
Yesterday
High -- | Low -- °F
Precip. -- in
5:11 AM 8:11 PM
Waxing Gibbous, 77% visible
Pressure 30.08 in
Visibility 10.0 miles
Clouds Clear
Heat Index 89 °F
Dew Point 67 °F
Humidity 54%
Rainfall 0.00 in
Snow Depth Not available.
UV 11 out of 12
Pollen 10.20 out of 12
Air Quality Not available.
Flu Activity Local Activity
METAR KBVY 281553Z 18012KT 10SM CLR 27/18 A3009 RMK AO2 SLP185 T02670183

More Conditions Fewer Conditions

Pressure 30.08 in
Visibility 10.0 miles
Clouds Clear
Heat Index 89 °F
Dew Point 67 °F
Humidity 54%
Rainfall 0.00 in
Snow Depth Not available.
UV 11 out of 12
Pollen 10.20 out of 12
Air Quality Not available.
Flu Activity Local Activity
METAR KBVY 281553Z 18012KT 10SM CLR 27/18 A3009 RMK AO2 SLP185 T02670183

More Conditions Fewer Conditions

10-Day Weather Forecast

Almanac

Astronomy

May. 28, 2015 Rise Set
Actual Time
Civil Twilight
Nautical Twilight
Astronomical Twilight
Moon
Length of Visible Light
Length of Day
Tomorrow will be .
, % of the Moon is Illuminated

Today's Extremes

State Highs State Lows

Community

WunderPhotos

Upload Photos

1,825,004 photos uploaded!

WunderBlogs® & News

Nearby

Air Quality

  Air Quality AQ Index Pollutant
Not available.

Snow Depth

Station Depth Elevation

Earthquake Activity

City Distance Mag. Time & Date
Minimum magnitude displayed is 2.5.

Coastal Water Temperatures

Place Temperature

Stations

Nearby Weather Stations

Station Location Temp. Windchill Dew Point Humidity Wind Precip. Elev Updated Type
                   
Severe Thunderstorm Watch
Statement as of 12:43 PM EDT on May 28, 2015

Severe Thunderstorm Watch 233 remains in effect until 700 PM EDT

MA
. Massachusetts counties included are

Berkshire Essex Franklin
Hampden Hampshire Middlesex
Norfolk Suffolk Worcester